createdAt,value
2018-12-29T00:00:12.517Z,6.80
2018-12-29T00:02:42.508Z,6.80
2018-12-29T00:05:10.970Z,6.78
2018-12-29T00:07:39.440Z,6.71
2018-12-29T00:10:07.913Z,6.80
2018-12-29T00:12:36.358Z,6.83
2018-12-29T00:15:05.359Z,6.85
2018-12-29T00:17:33.803Z,6.84
2018-12-29T00:20:02.274Z,6.80
2018-12-29T00:22:30.716Z,6.81
2018-12-29T00:24:59.180Z,6.80
2018-12-29T00:27:27.628Z,6.78
2018-12-29T00:29:56.141Z,6.76
2018-12-29T00:32:24.581Z,6.76
2018-12-29T00:34:53.051Z,6.80
2018-12-29T00:37:21.513Z,6.86
2018-12-29T00:39:49.987Z,6.82
2018-12-29T00:42:18.435Z,6.91
2018-12-29T00:44:46.889Z,6.84
2018-12-29T00:47:15.337Z,6.84
2018-12-29T00:49:43.837Z,6.86
2018-12-29T00:52:12.285Z,6.76
2018-12-29T00:54:41.031Z,6.78
2018-12-29T00:57:09.492Z,6.82
2018-12-29T00:59:37.932Z,6.73
2018-12-29T01:02:06.400Z,6.78
2018-12-29T01:04:34.843Z,6.79
2018-12-29T01:07:03.296Z,6.85
2018-12-29T01:09:31.745Z,6.86
2018-12-29T01:12:00.331Z,6.80
2018-12-29T01:14:28.788Z,6.85
2018-12-29T01:16:57.258Z,6.81
2018-12-29T01:19:25.726Z,6.87
2018-12-29T01:21:54.170Z,6.87
2018-12-29T01:24:22.633Z,6.77
2018-12-29T01:26:51.102Z,6.84
2018-12-29T01:29:19.547Z,6.76
2018-12-29T01:31:48.007Z,6.88
2018-12-29T01:34:16.449Z,6.82
2018-12-29T01:36:44.918Z,6.76
2018-12-29T01:39:13.372Z,6.77
2018-12-29T01:41:41.840Z,6.76
2018-12-29T01:44:10.286Z,6.90
2018-12-29T01:46:38.733Z,6.89
2018-12-29T01:49:07.170Z,6.77
2018-12-29T01:51:35.651Z,6.80
2018-12-29T01:54:04.089Z,6.78
2018-12-29T01:56:32.539Z,6.88
2018-12-29T01:59:00.996Z,6.81
2018-12-29T02:01:29.469Z,6.88
2018-12-29T02:03:57.937Z,6.77
2018-12-29T02:06:26.419Z,6.78
2018-12-29T02:08:55.137Z,6.84
2018-12-29T02:11:23.634Z,6.75
2018-12-29T02:13:52.071Z,6.86
2018-12-29T02:16:20.529Z,6.85
2018-12-29T02:18:48.973Z,6.86
2018-12-29T02:21:17.427Z,6.89
2018-12-29T02:23:45.898Z,6.81
2018-12-29T02:26:14.385Z,6.70
2018-12-29T02:28:42.851Z,6.89
2018-12-29T02:31:11.279Z,6.87
2018-12-29T02:33:39.735Z,6.91
2018-12-29T02:36:08.179Z,6.82
2018-12-29T02:38:36.629Z,6.70
2018-12-29T02:41:05.065Z,6.79
2018-12-29T02:43:33.525Z,6.79
2018-12-29T02:46:02.031Z,6.81
2018-12-29T02:48:30.495Z,6.79
2018-12-29T02:50:58.963Z,6.71
2018-12-29T02:53:27.444Z,6.77
2018-12-29T02:55:55.893Z,6.76
2018-12-29T02:58:24.342Z,6.68
2018-12-29T03:00:52.798Z,6.68
2018-12-29T03:03:21.254Z,6.78
2018-12-29T03:05:49.691Z,6.72
2018-12-29T03:08:18.169Z,6.82
2018-12-29T03:10:46.623Z,6.80
2018-12-29T03:13:15.137Z,6.83
2018-12-29T03:15:43.584Z,6.86
2018-12-29T03:18:12.051Z,6.75
2018-12-29T03:20:40.506Z,6.77
2018-12-29T03:23:08.967Z,6.68
2018-12-29T03:25:37.447Z,6.64
2018-12-29T03:28:05.891Z,6.71
2018-12-29T03:30:34.355Z,6.75
2018-12-29T03:33:02.828Z,6.72
2018-12-29T03:35:31.256Z,6.70
2018-12-29T03:37:59.703Z,6.73
2018-12-29T03:40:28.526Z,6.72
2018-12-29T03:42:56.962Z,6.67
2018-12-29T03:45:25.416Z,6.72
2018-12-29T03:47:53.859Z,6.66
2018-12-29T03:50:22.312Z,6.65
2018-12-29T03:52:50.754Z,6.65
2018-12-29T03:55:19.230Z,6.70
2018-12-29T03:57:47.666Z,6.60
2018-12-29T04:00:16.116Z,6.70
2018-12-29T04:02:44.558Z,6.65
2018-12-29T04:05:13.030Z,6.63
2018-12-29T04:07:41.476Z,6.64
2018-12-29T04:10:15.054Z,6.72
2018-12-29T04:12:46.184Z,6.72
2018-12-29T04:15:14.678Z,6.70
2018-12-29T04:17:43.102Z,6.65
2018-12-29T04:20:11.555Z,6.57
2018-12-29T04:22:40.012Z,6.61
2018-12-29T04:25:08.464Z,6.56
2018-12-29T04:27:36.922Z,6.53
2018-12-29T04:30:06.109Z,6.52
2018-12-29T04:32:34.555Z,6.66
2018-12-29T04:35:03.013Z,6.70
2018-12-29T04:37:31.487Z,6.61
2018-12-29T04:39:59.958Z,6.68
2018-12-29T04:42:28.418Z,6.58
2018-12-29T04:44:56.874Z,6.59
2018-12-29T04:47:25.319Z,6.59
2018-12-29T04:49:53.801Z,6.68
2018-12-29T04:52:22.238Z,6.71
2018-12-29T04:54:50.705Z,6.70
2018-12-29T04:57:19.158Z,6.56
2018-12-29T04:59:47.611Z,6.67
2018-12-29T05:02:16.059Z,6.66
2018-12-29T05:04:44.501Z,6.64
2018-12-29T05:07:12.971Z,6.65
2018-12-29T05:09:41.413Z,6.64
2018-12-29T05:12:09.861Z,6.65
2018-12-29T05:14:38.309Z,6.63
2018-12-29T05:17:06.797Z,6.72
2018-12-29T05:19:35.241Z,6.65
2018-12-29T05:22:03.695Z,6.69
2018-12-29T05:24:32.149Z,6.61
2018-12-29T05:27:00.659Z,6.57
2018-12-29T05:29:29.103Z,6.49
2018-12-29T05:31:57.579Z,6.59
2018-12-29T05:34:27.682Z,6.63
2018-12-29T05:36:56.165Z,6.64
2018-12-29T05:39:24.610Z,6.64
2018-12-29T05:41:53.076Z,6.63
2018-12-29T05:44:21.522Z,6.65
2018-12-29T05:46:49.994Z,6.57
2018-12-29T05:49:18.448Z,6.60
2018-12-29T05:51:46.885Z,6.56
2018-12-29T05:54:15.362Z,6.61
2018-12-29T05:56:43.831Z,6.56
2018-12-29T05:59:12.282Z,6.58
2018-12-29T06:01:40.916Z,6.59
2018-12-29T06:04:09.358Z,6.52
2018-12-29T06:06:37.804Z,6.60
2018-12-29T06:09:06.878Z,6.57
2018-12-29T06:11:35.344Z,6.58
2018-12-29T06:14:03.775Z,6.56
2018-12-29T06:16:32.254Z,6.53
2018-12-29T06:19:00.709Z,6.52
2018-12-29T06:21:29.164Z,6.43
2018-12-29T06:23:57.642Z,6.51
2018-12-29T06:26:26.098Z,6.51
2018-12-29T06:28:54.547Z,6.59
2018-12-29T06:31:22.998Z,6.49
2018-12-29T06:33:51.511Z,6.56
2018-12-29T06:36:20.001Z,6.50
2018-12-29T06:38:48.473Z,6.52
2018-12-29T06:41:16.918Z,6.46
2018-12-29T06:43:45.397Z,6.42
2018-12-29T06:46:13.839Z,6.41
2018-12-29T06:48:42.327Z,6.38
2018-12-29T06:51:10.777Z,6.38
2018-12-29T06:53:39.282Z,6.45
2018-12-29T06:56:07.728Z,6.48
2018-12-29T06:58:36.184Z,6.46
2018-12-29T07:01:04.642Z,6.44
2018-12-29T07:03:33.104Z,6.46
2018-12-29T07:06:01.562Z,6.45
2018-12-29T07:08:30.039Z,6.45
2018-12-29T07:10:58.492Z,6.55
2018-12-29T07:13:26.958Z,6.45
2018-12-29T07:15:55.413Z,6.54
2018-12-29T07:18:23.887Z,6.51
2018-12-29T07:20:52.342Z,6.53
2018-12-29T07:23:20.857Z,6.48
2018-12-29T07:25:49.311Z,6.53
2018-12-29T07:28:17.796Z,6.51
2018-12-29T07:30:46.242Z,6.41
2018-12-29T07:33:14.690Z,6.57
2018-12-29T07:35:43.148Z,6.49
2018-12-29T07:38:11.589Z,6.42
2018-12-29T07:40:40.056Z,6.58
2018-12-29T07:43:08.488Z,6.40
2018-12-29T07:45:36.955Z,6.42
2018-12-29T07:48:05.391Z,6.51
2018-12-29T07:50:33.835Z,6.54
2018-12-29T07:53:02.323Z,6.48
2018-12-29T07:55:30.815Z,6.50
2018-12-29T07:57:59.266Z,6.53
2018-12-29T08:00:27.717Z,6.55
2018-12-29T08:02:56.170Z,6.46
2018-12-29T08:05:24.625Z,6.58
2018-12-29T08:07:53.093Z,6.50
2018-12-29T08:10:21.566Z,6.47
2018-12-29T08:12:50.011Z,6.45
2018-12-29T08:15:18.508Z,6.37
2018-12-29T08:17:46.919Z,6.51
2018-12-29T08:20:15.383Z,6.61
2018-12-29T08:22:43.837Z,6.51
2018-12-29T08:25:12.416Z,6.65
2018-12-29T08:27:40.865Z,6.48
2018-12-29T08:30:09.336Z,6.51
2018-12-29T08:32:37.794Z,6.48
2018-12-29T08:35:06.597Z,6.55
2018-12-29T08:37:35.067Z,6.60
2018-12-29T08:40:03.729Z,6.67
2018-12-29T08:42:32.220Z,6.56
2018-12-29T08:45:00.709Z,6.52
2018-12-29T08:47:29.150Z,6.46
2018-12-29T08:49:57.615Z,6.54
2018-12-29T08:52:26.065Z,6.49
2018-12-29T08:54:54.513Z,6.47
2018-12-29T08:57:22.957Z,6.48
2018-12-29T08:59:51.441Z,6.51
2018-12-29T09:02:19.882Z,6.52
2018-12-29T09:04:48.321Z,6.60
2018-12-29T09:07:16.831Z,6.51
2018-12-29T09:09:45.279Z,6.52
2018-12-29T09:12:13.743Z,6.46
2018-12-29T09:14:42.187Z,6.53
2018-12-29T09:17:12.273Z,6.62
2018-12-29T09:19:41.003Z,6.58
2018-12-29T09:22:09.475Z,6.69
2018-12-29T09:24:37.915Z,6.63
2018-12-29T09:27:06.387Z,6.75
2018-12-29T09:29:34.838Z,6.71
2018-12-29T09:32:03.287Z,6.80
2018-12-29T09:34:31.741Z,6.87
2018-12-29T09:37:00.198Z,6.86
2018-12-29T09:39:28.643Z,6.91
2018-12-29T09:41:57.103Z,6.89
2018-12-29T09:44:25.568Z,6.85
2018-12-29T09:46:55.014Z,6.94
2018-12-29T09:49:23.552Z,6.78
2018-12-29T09:51:52.031Z,6.79
2018-12-29T09:54:20.473Z,7.01
2018-12-29T09:56:49.001Z,6.82
2018-12-29T09:59:17.463Z,6.88
2018-12-29T10:01:45.936Z,6.83
2018-12-29T10:04:14.382Z,6.79
2018-12-29T10:06:42.827Z,6.91
2018-12-29T10:09:11.287Z,6.95
2018-12-29T10:11:39.781Z,6.84
2018-12-29T10:14:08.223Z,6.93
2018-12-29T10:16:36.683Z,6.87
2018-12-29T10:19:05.126Z,7.05
2018-12-29T10:21:33.601Z,7.07
2018-12-29T10:24:02.035Z,7.08
2018-12-29T10:26:30.520Z,7.05
2018-12-29T10:28:58.972Z,6.93
2018-12-29T10:31:27.423Z,7.02
2018-12-29T10:33:55.870Z,7.00
2018-12-29T10:36:24.321Z,7.00
2018-12-29T10:38:52.810Z,7.08
2018-12-29T10:41:21.246Z,7.11
2018-12-29T10:43:49.714Z,7.16
2018-12-29T10:46:18.145Z,7.23
2018-12-29T10:48:46.697Z,7.28
2018-12-29T10:51:15.152Z,7.13
2018-12-29T10:53:43.610Z,7.20
2018-12-29T10:56:12.070Z,7.21
2018-12-29T10:58:40.544Z,7.14
2018-12-29T11:01:08.995Z,7.19
2018-12-29T11:03:37.465Z,7.19
2018-12-29T11:06:05.923Z,7.25
2018-12-29T11:08:34.391Z,7.12
2018-12-29T11:11:02.881Z,7.14
2018-12-29T11:13:31.395Z,7.21
2018-12-29T11:15:59.853Z,7.16
2018-12-29T11:18:28.310Z,7.07
2018-12-29T11:20:56.760Z,7.09
2018-12-29T11:23:25.241Z,7.05
2018-12-29T11:25:53.682Z,7.08
2018-12-29T11:28:22.167Z,7.08
2018-12-29T11:30:50.611Z,7.14
2018-12-29T11:33:19.067Z,7.19
2018-12-29T11:35:49.143Z,7.03
2018-12-29T11:38:17.607Z,6.97
2018-12-29T11:40:46.081Z,7.07
2018-12-29T11:43:14.564Z,7.01
2018-12-29T11:45:43.018Z,7.07
2018-12-29T11:48:11.494Z,7.20
2018-12-29T11:50:39.946Z,7.21
2018-12-29T11:53:08.406Z,7.25
2018-12-29T11:55:36.977Z,7.35
2018-12-29T11:58:05.467Z,7.25
2018-12-29T12:00:33.911Z,7.51
2018-12-29T12:03:02.348Z,7.47
2018-12-29T12:05:30.805Z,7.59
2018-12-29T12:07:59.255Z,7.50
2018-12-29T12:10:27.733Z,7.65
2018-12-29T12:12:56.197Z,7.68
2018-12-29T12:15:24.668Z,7.68
2018-12-29T12:17:57.408Z,7.72
2018-12-29T12:20:23.339Z,7.83
2018-12-29T12:22:51.816Z,7.69
2018-12-29T12:25:20.258Z,7.79
2018-12-29T12:27:49.012Z,7.65
2018-12-29T12:30:17.470Z,7.67
2018-12-29T12:32:45.937Z,7.63
2018-12-29T12:35:14.418Z,7.55
2018-12-29T12:37:42.861Z,7.51
2018-12-29T12:40:11.315Z,7.41
2018-12-29T12:42:39.775Z,7.52
2018-12-29T12:45:08.239Z,7.55
2018-12-29T12:47:36.708Z,7.45
2018-12-29T12:50:05.534Z,7.41
2018-12-29T12:52:34.380Z,7.38
2018-12-29T12:55:02.829Z,7.31
2018-12-29T12:57:31.271Z,7.30
2018-12-29T13:00:00.263Z,7.27
2018-12-29T13:02:29.008Z,7.35
2018-12-29T13:04:57.467Z,7.33
2018-12-29T13:07:25.917Z,7.38
2018-12-29T13:09:54.377Z,7.42
2018-12-29T13:12:22.839Z,7.46
2018-12-29T13:14:51.570Z,7.36
2018-12-29T13:17:20.029Z,7.44
2018-12-29T13:19:48.488Z,7.31
2018-12-29T13:22:16.962Z,7.31
2018-12-29T13:24:45.407Z,7.27
2018-12-29T13:27:14.071Z,7.46
2018-12-29T13:29:42.544Z,7.37
2018-12-29T13:32:11.013Z,7.40
2018-12-29T13:34:39.460Z,7.51
2018-12-29T13:37:07.916Z,7.59
2018-12-29T13:39:36.786Z,7.55
2018-12-29T13:42:05.301Z,7.71
2018-12-29T13:44:33.734Z,7.52
2018-12-29T13:47:02.209Z,7.49
2018-12-29T13:49:30.689Z,7.56
2018-12-29T13:51:59.330Z,7.62
2018-12-29T13:54:27.767Z,7.57
2018-12-29T13:56:56.215Z,7.55
2018-12-29T13:59:24.668Z,7.55
2018-12-29T14:01:53.120Z,7.67
2018-12-29T14:04:22.382Z,7.63
2018-12-29T14:06:50.855Z,7.57
2018-12-29T14:09:19.310Z,7.49
2018-12-29T14:11:47.781Z,7.68
2018-12-29T14:14:16.231Z,7.57
2018-12-29T14:16:44.694Z,7.59
2018-12-29T14:19:13.166Z,7.65
2018-12-29T14:21:41.640Z,7.54
2018-12-29T14:24:10.078Z,7.55
2018-12-29T14:26:38.572Z,7.54
2018-12-29T14:29:07.015Z,7.48
2018-12-29T14:31:35.531Z,7.64
2018-12-29T14:34:03.974Z,7.50
2018-12-29T14:36:32.432Z,7.58
2018-12-29T14:39:00.898Z,7.50
2018-12-29T14:41:29.393Z,7.60
2018-12-29T14:43:57.848Z,7.63
2018-12-29T14:46:26.317Z,7.63
2018-12-29T14:48:54.754Z,7.67
2018-12-29T14:51:23.195Z,7.55
2018-12-29T14:53:51.665Z,7.56
2018-12-29T14:56:20.125Z,7.60
2018-12-29T14:58:48.592Z,7.67
2018-12-29T15:01:17.033Z,7.72
2018-12-29T15:03:45.507Z,7.62
2018-12-29T15:06:13.939Z,7.59
2018-12-29T15:08:42.400Z,7.68
2018-12-29T15:11:10.852Z,7.71
2018-12-29T15:13:40.859Z,7.72
2018-12-29T15:16:09.297Z,7.69
2018-12-29T15:18:43.732Z,7.67
2018-12-29T15:21:07.969Z,7.76
2018-12-29T15:23:36.432Z,7.71
2018-12-29T15:26:04.873Z,7.78
2018-12-29T15:28:33.350Z,7.70
2018-12-29T15:31:01.792Z,7.76
2018-12-29T15:33:30.762Z,7.72
2018-12-29T15:35:59.209Z,7.65
2018-12-29T15:38:27.690Z,7.62
2018-12-29T15:40:56.404Z,7.68
2018-12-29T15:43:24.876Z,7.69
2018-12-29T15:45:53.325Z,7.66
2018-12-29T15:48:22.064Z,7.66
2018-12-29T15:50:50.533Z,7.68
2018-12-29T15:53:19.008Z,7.71
2018-12-29T15:55:47.465Z,7.53
2018-12-29T15:58:16.197Z,7.61
2018-12-29T16:00:44.696Z,7.57
2018-12-29T16:03:13.326Z,7.64
2018-12-29T16:05:41.798Z,7.58
2018-12-29T16:08:10.259Z,7.61
2018-12-29T16:10:38.725Z,7.62
2018-12-29T16:13:07.186Z,7.60
2018-12-29T16:15:35.663Z,7.61
2018-12-29T16:18:04.093Z,7.59
2018-12-29T16:20:32.653Z,7.59
2018-12-29T16:23:01.102Z,7.65
2018-12-29T16:25:29.568Z,7.50
2018-12-29T16:27:57.999Z,7.63
2018-12-29T16:30:26.840Z,7.73
2018-12-29T16:32:55.682Z,7.73
2018-12-29T16:35:24.146Z,7.65
2018-12-29T16:37:52.602Z,7.59
2018-12-29T16:40:21.085Z,7.58
2018-12-29T16:42:49.523Z,7.65
2018-12-29T16:45:18.212Z,7.65
2018-12-29T16:47:46.647Z,7.68
2018-12-29T16:50:15.121Z,7.60
2018-12-29T16:52:43.566Z,7.70
2018-12-29T16:55:12.431Z,7.68
2018-12-29T16:57:40.884Z,7.63
2018-12-29T17:00:09.475Z,7.60
2018-12-29T17:02:37.932Z,7.73
2018-12-29T17:05:06.653Z,7.69
2018-12-29T17:07:35.123Z,7.67
2018-12-29T17:10:04.035Z,7.62
2018-12-29T17:12:32.519Z,7.64
2018-12-29T17:15:01.451Z,7.57
2018-12-29T17:17:29.914Z,7.64
2018-12-29T17:19:58.388Z,7.65
2018-12-29T17:22:26.873Z,7.62
2018-12-29T17:24:55.317Z,7.63
2018-12-29T17:27:23.809Z,7.66
2018-12-29T17:29:52.441Z,7.58
2018-12-29T17:32:20.897Z,7.50
2018-12-29T17:34:49.351Z,7.54
2018-12-29T17:37:17.848Z,7.60
2018-12-29T17:39:46.377Z,7.66
2018-12-29T17:42:14.899Z,7.62
2018-12-29T17:44:43.415Z,7.56
2018-12-29T17:47:11.850Z,7.57
2018-12-29T17:49:40.297Z,7.68
2018-12-29T17:52:08.776Z,7.65
2018-12-29T17:54:37.223Z,7.69
2018-12-29T17:57:07.867Z,7.66
2018-12-29T17:59:36.341Z,7.65
2018-12-29T18:02:04.835Z,7.61
2018-12-29T18:04:33.562Z,7.62
2018-12-29T18:07:02.018Z,7.56
2018-12-29T18:09:30.484Z,7.53
2018-12-29T18:11:59.032Z,7.64
2018-12-29T18:14:27.562Z,7.66
2018-12-29T18:16:56.058Z,7.63
2018-12-29T18:19:30.545Z,7.59
2018-12-29T18:21:54.722Z,7.63
2018-12-29T18:24:23.183Z,7.59
2018-12-29T18:26:51.764Z,7.57
2018-12-29T18:29:20.244Z,7.65
2018-12-29T18:31:48.898Z,7.58
2018-12-29T18:34:17.364Z,7.49
2018-12-29T18:36:45.811Z,7.51
2018-12-29T18:39:14.269Z,7.45
2018-12-29T18:41:42.741Z,7.46
2018-12-29T18:44:11.482Z,7.48
2018-12-29T18:46:39.985Z,7.42
2018-12-29T18:49:08.479Z,7.43
2018-12-29T18:51:37.713Z,7.38
2018-12-29T18:54:06.181Z,7.49
2018-12-29T18:56:34.627Z,7.34
2018-12-29T18:59:03.101Z,7.36
2018-12-29T19:01:31.547Z,7.42
2018-12-29T19:04:00.045Z,7.28
2018-12-29T19:06:28.493Z,7.21
2018-12-29T19:08:56.954Z,7.29
2018-12-29T19:11:25.611Z,7.40
2018-12-29T19:13:54.069Z,7.25
2018-12-29T19:16:22.540Z,7.26
2018-12-29T19:18:51.009Z,7.16
2018-12-29T19:21:21.236Z,7.11
2018-12-29T19:23:50.085Z,7.15
2018-12-29T19:26:18.904Z,7.08
2018-12-29T19:28:47.785Z,7.00
2018-12-29T19:31:16.636Z,6.93
2018-12-29T19:33:45.087Z,6.91
2018-12-29T19:36:13.574Z,6.82
2018-12-29T19:38:42.047Z,6.72
2018-12-29T19:41:10.977Z,6.84
2018-12-29T19:43:39.440Z,6.68
2018-12-29T19:46:08.375Z,6.58
2018-12-29T19:48:36.868Z,6.51
2018-12-29T19:51:05.328Z,6.59
2018-12-29T19:53:34.212Z,6.54
2018-12-29T19:56:02.665Z,6.46
2018-12-29T19:58:31.137Z,6.43
2018-12-29T20:00:59.602Z,6.36
2018-12-29T20:03:28.113Z,6.18
2018-12-29T20:05:56.545Z,6.22
2018-12-29T20:08:25.051Z,6.29
2018-12-29T20:10:53.526Z,6.26
2018-12-29T20:13:22.025Z,6.18
2018-12-29T20:15:50.579Z,6.16
2018-12-29T20:18:19.093Z,6.18
2018-12-29T20:20:47.568Z,6.16
2018-12-29T20:23:16.294Z,6.11
2018-12-29T20:25:44.788Z,6.17
2018-12-29T20:28:14.713Z,6.07
2018-12-29T20:30:43.294Z,6.06
2018-12-29T20:33:11.749Z,5.98
2018-12-29T20:35:40.616Z,6.09
2018-12-29T20:38:09.099Z,6.08
2018-12-29T20:40:37.582Z,6.09
2018-12-29T20:43:06.162Z,6.10
2018-12-29T20:45:34.608Z,6.05
2018-12-29T20:48:03.082Z,6.09
2018-12-29T20:50:31.563Z,5.99
2018-12-29T20:53:00.015Z,6.09
2018-12-29T20:55:28.504Z,5.93
2018-12-29T20:57:56.978Z,5.96
2018-12-29T21:00:25.476Z,5.95
2018-12-29T21:02:54.405Z,6.05
2018-12-29T21:05:22.889Z,6.00
2018-12-29T21:07:51.329Z,5.84
2018-12-29T21:10:19.822Z,5.88
2018-12-29T21:12:48.286Z,5.95
2018-12-29T21:15:16.776Z,5.96
2018-12-29T21:17:45.252Z,6.10
2018-12-29T21:20:17.428Z,6.02
2018-12-29T21:22:43.971Z,6.07
2018-12-29T21:25:12.458Z,6.07
2018-12-29T21:27:40.931Z,5.96
2018-12-29T21:30:09.694Z,5.87
2018-12-29T21:32:38.169Z,6.03
2018-12-29T21:35:06.655Z,5.95
2018-12-29T21:37:35.121Z,5.96
2018-12-29T21:40:04.756Z,5.87
2018-12-29T21:42:33.264Z,6.01
2018-12-29T21:45:01.739Z,6.11
2018-12-29T21:47:30.230Z,6.08
2018-12-29T21:49:58.707Z,6.15
2018-12-29T21:52:27.231Z,6.05
2018-12-29T21:54:55.711Z,6.11
2018-12-29T21:57:24.181Z,5.91
2018-12-29T21:59:52.642Z,6.11
2018-12-29T22:02:21.158Z,6.07
2018-12-29T22:04:49.614Z,6.03
2018-12-29T22:07:18.095Z,6.02
2018-12-29T22:09:46.539Z,5.96
2018-12-29T22:12:15.401Z,5.98
2018-12-29T22:14:43.859Z,6.02
2018-12-29T22:17:12.424Z,5.95
2018-12-29T22:19:40.886Z,6.05
2018-12-29T22:22:09.527Z,5.99
2018-12-29T22:24:37.995Z,6.12
2018-12-29T22:27:06.469Z,6.09
2018-12-29T22:29:34.963Z,6.06
2018-12-29T22:32:03.449Z,6.06
2018-12-29T22:34:31.905Z,6.11
2018-12-29T22:37:00.368Z,6.13
2018-12-29T22:39:29.222Z,6.09
2018-12-29T22:41:59.163Z,5.99
2018-12-29T22:44:27.838Z,6.04
2018-12-29T22:46:56.370Z,6.11
2018-12-29T22:49:24.769Z,5.97
2018-12-29T22:51:53.217Z,6.14
2018-12-29T22:54:21.703Z,6.11
2018-12-29T22:56:50.178Z,6.17
2018-12-29T22:59:18.630Z,6.16
2018-12-29T23:01:47.079Z,6.20
2018-12-29T23:04:15.605Z,6.16
2018-12-29T23:06:44.062Z,6.15
2018-12-29T23:09:12.897Z,6.14
2018-12-29T23:11:41.360Z,6.17
2018-12-29T23:14:09.861Z,6.15
2018-12-29T23:16:39.820Z,6.03
2018-12-29T23:19:08.306Z,6.07
2018-12-29T23:21:36.773Z,6.06
2018-12-29T23:24:05.606Z,6.07
2018-12-29T23:26:34.049Z,6.14
2018-12-29T23:29:02.546Z,6.25
2018-12-29T23:31:31.055Z,6.03
2018-12-29T23:33:59.543Z,6.17
2018-12-29T23:36:27.979Z,6.23
2018-12-29T23:38:56.460Z,6.04
2018-12-29T23:41:24.935Z,6.18
2018-12-29T23:43:53.888Z,6.19
2018-12-29T23:46:22.329Z,6.24
2018-12-29T23:48:50.786Z,6.16
2018-12-29T23:51:19.225Z,6.18
2018-12-29T23:53:47.684Z,6.19
2018-12-29T23:56:16.570Z,6.16
2018-12-29T23:58:45.429Z,6.24
